.
WxDataArchive / Data Records for 2005-12-24
2005-12-23 December 2005 2005-12-25

Data Records for Saturday, 24 December 2005

Time	Temp	Chill	HIndex	Humid	Dewpt	 Wind 	HiWind	WindDir	Rain 	Barom 
-----	----	-----	------	-----	-----	------	------	-------	-----	----- 
00:00	31.9	31.9	31.9	91	29.6	0	0	---	0.00	29.769 
00:05	31.9	31.9	31.9	91	29.6	0	0	---	0.00	29.769 
00:10	31.8	31.8	31.8	91	29.5	0	0	---	0.00	29.769 
00:15	31.8	31.8	31.8	92	29.7	0	0	---	0.00	29.763 
00:20	31.8	31.8	31.8	92	29.7	0	0	---	0.00	29.763 
00:25	31.6	31.6	31.6	92	29.5	0	0	---	0.00	29.763 
00:30	31.5	31.5	31.5	91	29.2	0	0	---	0.00	29.756 
00:35	31.5	31.5	31.5	92	29.4	0	0	---	0.00	29.756 
00:40	31.3	31.3	31.3	92	29.3	0	0	---	0.00	29.756 
00:45	31.3	31.3	31.3	91	29.0	0	0	---	0.00	29.756 
00:50	31.2	31.2	31.2	91	28.9	0	0	---	0.00	29.756 
00:55	31.0	31.0	31.0	92	29.0	0	0	---	0.00	29.756 
01:00	31.0	31.0	31.0	92	29.0	0	0	---	0.00	29.756 
01:05	30.9	30.9	30.9	92	28.9	0	0	---	0.00	29.756 
01:10	30.9	30.9	30.9	92	28.9	0	0	---	0.00	29.756 
01:15	30.7	30.7	30.7	92	28.7	0	0	---	0.00	29.754 
01:20	30.6	30.6	30.6	92	28.6	0	0	---	0.00	29.754 
01:25	30.4	30.4	30.4	92	28.4	0	0	---	0.00	29.754 
01:30	30.3	30.3	30.3	91	28.0	0	0	---	0.00	29.754 
01:35	30.3	30.3	30.3	91	28.0	0	0	---	0.00	29.754 
01:40	30.1	30.1	30.1	91	27.8	0	0	---	0.00	29.754 
01:45	30.0	30.0	30.0	91	27.7	0	0	---	0.00	29.754 
01:50	29.8	29.8	29.8	92	27.8	0	0	---	0.00	29.754 
01:55	29.8	29.8	29.8	92	27.8	0	0	---	0.00	29.754 
02:00	29.7	29.7	29.7	92	27.7	0	0	---	0.00	29.755 
02:05	29.7	29.7	29.7	92	27.7	0	0	---	0.00	29.755 
02:10	29.5	29.5	29.5	92	27.5	0	0	---	0.00	29.755 
02:15	29.5	29.5	29.5	92	27.5	0	0	---	0.00	29.753 
02:20	29.7	29.7	29.7	92	27.7	0	0	---	0.00	29.753 
02:25	29.8	29.8	29.8	93	28.0	0	0	---	0.00	29.753 
02:30	30.1	30.1	30.1	93	28.3	0	0	---	0.00	29.754 
02:35	30.3	30.3	30.3	93	28.5	0	0	---	0.00	29.754 
02:40	30.3	30.3	30.3	93	28.5	0	0	---	0.00	29.754 
02:45	30.3	30.3	30.3	93	28.5	0	0	---	0.00	29.753 
02:50	30.1	30.1	30.1	93	28.3	0	0	---	0.00	29.753 
02:55	30.0	30.0	30.0	93	28.2	0	0	---	0.00	29.753 
03:00	29.8	29.8	29.8	93	28.0	0	0	---	0.00	29.753 
03:05	29.7	29.7	29.7	93	27.9	0	0	---	0.00	29.753 
03:10	29.7	29.7	29.7	93	27.9	0	0	---	0.00	29.753 
03:15	29.7	29.7	29.7	93	27.9	0	0	---	0.00	29.754 
03:20	29.5	29.5	29.5	93	27.7	0	0	---	0.00	29.754 
03:25	29.7	29.7	29.7	93	27.9	0	0	---	0.00	29.754 
03:30	30.0	30.0	30.0	93	28.2	0	0	---	0.00	29.754 
03:35	30.3	30.3	30.3	94	28.8	0	0	---	0.00	29.754 
03:40	31.0	31.0	31.0	94	29.5	0	1	248	0.00	29.754 
03:45	31.9	31.9	31.9	94	30.4	0	1	248	0.00	29.751 
03:50	32.7	32.7	32.7	94	31.2	0	1	248	0.00	29.751 
03:55	32.9	32.9	32.9	94	31.4	0	1	248	0.00	29.751 
04:00	33.1	33.1	33.1	94	31.6	0	0	---	0.00	29.751 
04:05	33.4	33.4	33.4	93	31.6	0	1	248	0.00	29.751 
04:10	33.7	33.7	33.7	93	31.9	0	1	248	0.00	29.751 
04:15	33.8	33.8	33.8	92	31.7	0	1	248	0.00	29.742 
04:20	33.7	33.7	33.7	91	31.4	0	1	248	0.00	29.742 
04:25	33.8	33.8	33.8	90	31.2	0	1	248	0.00	29.742 
04:30	34.3	34.3	34.3	89	31.4	0	1	248	0.00	29.738 
04:35	34.6	34.6	34.6	88	31.4	0	1	248	0.00	29.738 
04:40	34.9	34.9	34.9	87	31.4	0	1	248	0.00	29.738 
04:45	35.0	35.0	35.0	87	31.5	0	1	248	0.00	29.737 
04:50	35.2	35.2	35.2	86	31.4	0	1	248	0.00	29.737 
04:55	35.3	35.3	35.3	85	31.2	0	1	248	0.00	29.737 
05:00	35.5	35.5	35.5	85	31.4	0	1	248	0.00	29.738 
05:05	35.6	35.6	35.6	84	31.3	0	1	248	0.00	29.738 
05:10	35.8	35.8	35.8	84	31.4	0	1	248	0.00	29.738 
05:15	35.9	35.9	35.9	84	31.5	0	0	---	0.00	29.738 
05:20	35.9	35.9	35.9	84	31.5	0	1	248	0.00	29.738 
05:25	36.0	36.0	36.0	83	31.3	0	1	248	0.00	29.738 
05:30	36.2	36.2	36.2	82	31.2	0	2	248	0.00	29.736 
05:35	36.2	36.2	36.2	82	31.2	0	1	248	0.00	29.736 
05:40	36.2	36.2	36.2	82	31.2	0	0	---	0.00	29.736 
05:45	36.2	36.2	36.2	82	31.2	0	1	248	0.00	29.738 
05:50	36.2	36.2	36.2	82	31.2	0	1	248	0.00	29.738 
05:55	36.2	36.2	36.2	81	30.9	0	2	248	0.00	29.738 
06:00	36.3	36.3	36.3	80	30.7	0	1	248	0.00	29.740 
06:05	36.2	36.2	36.2	81	30.9	0	1	248	0.00	29.740 
06:10	36.2	36.2	36.2	81	30.9	0	2	248	0.00	29.740 
06:15	36.0	36.0	36.0	81	30.7	0	2	248	0.00	29.744 
06:20	36.0	36.0	36.0	81	30.7	0	2	248	0.00	29.744 
06:25	36.0	36.0	36.0	80	30.4	0	2	135	0.00	29.744 
06:30	36.0	36.0	36.0	80	30.4	0	2	135	0.00	29.746 
06:35	36.0	36.0	36.0	80	30.4	0	1	135	0.00	29.746 
06:40	35.9	35.9	35.9	79	30.0	0	2	135	0.00	29.746 
06:45	35.9	35.9	35.9	80	30.3	0	3	90	0.00	29.743 
06:50	35.9	35.9	35.9	80	30.3	0	2	90	0.00	29.743 
06:55	35.8	35.8	35.8	79	29.9	0	1	90	0.00	29.743 
07:00	35.8	35.8	35.8	80	30.2	0	1	90	0.00	29.743 
07:05	35.6	35.6	35.6	80	30.1	0	2	90	0.00	29.743 
07:10	35.5	35.5	35.5	80	30.0	0	1	90	0.00	29.743 
07:15	35.3	35.3	35.3	80	29.8	0	1	90	0.00	29.747 
07:20	35.2	35.2	35.2	80	29.7	0	1	90	0.00	29.747 
07:25	35.2	35.2	35.2	80	29.7	0	1	90	0.00	29.747 
07:30	35.2	35.2	35.2	80	29.7	0	1	90	0.00	29.745 
07:35	35.2	35.2	35.2	80	29.7	0	2	90	0.00	29.745 
07:40	35.3	35.3	35.3	79	29.4	1	4	135	0.00	29.745 
07:45	35.2	35.2	35.2	79	29.4	0	1	135	0.00	29.743 
07:50	35.2	35.2	35.2	79	29.4	1	2	135	0.00	29.743 
07:55	35.2	35.2	35.2	79	29.4	0	1	202	0.00	29.743 
08:00	35.0	35.0	35.0	79	29.2	0	1	202	0.00	29.745 
08:05	35.0	35.0	35.0	79	29.2	0	1	202	0.00	29.745 
08:10	35.0	35.0	35.0	79	29.2	0	1	202	0.00	29.745 
08:15	34.9	34.9	34.9	79	29.1	0	1	202	0.00	29.745 
08:20	34.9	34.9	34.9	79	29.1	0	1	202	0.00	29.745 
08:25	35.0	35.0	35.0	78	28.8	0	2	202	0.00	29.745 
08:30	35.2	35.2	35.2	78	29.0	0	2	202	0.00	29.744 
08:35	35.2	35.2	35.2	78	29.0	0	2	180	0.00	29.744 
08:40	35.3	35.3	35.3	78	29.1	0	1	180	0.00	29.744 
08:45	35.5	35.5	35.5	77	29.0	0	1	180	0.00	29.743 
08:50	35.5	35.5	35.5	77	29.0	0	1	180	0.00	29.743 
08:55	35.6	35.6	35.6	77	29.1	0	1	180	0.00	29.743 
09:00	35.8	35.8	35.8	77	29.3	0	2	180	0.00	29.744 
09:05	36.0	36.0	36.0	76	29.2	0	2	158	0.00	29.744 
09:10	36.2	36.2	36.2	76	29.4	0	1	158	0.00	29.744 
09:15	36.5	36.5	36.5	75	29.3	0	1	158	0.00	29.747 
09:20	36.6	36.6	36.6	75	29.4	0	2	135	0.00	29.747 
09:25	36.9	36.9	36.9	74	29.4	1	2	112	0.00	29.747 
09:30	37.0	37.0	37.0	74	29.5	1	2	22	0.00	29.754 
09:35	37.3	37.3	37.3	74	29.8	1	3	338	0.00	29.754 
09:40	37.6	37.6	37.6	73	29.7	1	3	248	0.00	29.754 
09:45	37.9	37.9	37.9	73	30.0	1	4	0	0.00	29.750 
09:50	38.2	38.2	38.2	72	30.0	2	5	270	0.00	29.750 
09:55	38.5	38.5	38.5	72	30.3	2	4	248	0.00	29.750 
10:00	38.6	38.6	38.6	71	30.0	2	6	270	0.00	29.755 
10:05	38.8	38.8	38.8	71	30.2	1	4	270	0.00	29.755 
10:10	38.8	38.8	38.8	71	30.2	1	4	248	0.00	29.755 
10:15	38.8	38.8	38.8	71	30.2	2	5	248	0.00	29.756 
10:20	38.9	38.9	38.9	71	30.3	2	6	248	0.00	29.756 
10:25	39.1	39.1	39.1	71	30.5	1	5	248	0.00	29.756 
10:30	39.1	39.1	39.1	70	30.2	1	5	225	0.00	29.756 
10:35	39.2	39.2	39.2	71	30.6	1	4	248	0.00	29.756 
10:40	39.5	39.5	39.5	70	30.5	1	3	248	0.00	29.756 
10:45	39.6	39.6	39.6	70	30.6	1	3	270	0.00	29.757 
10:50	39.6	39.6	39.6	70	30.6	1	2	22	0.00	29.757 
10:55	39.8	39.8	39.8	70	30.8	1	3	22	0.00	29.757 
11:00	39.9	39.9	39.9	70	30.9	1	3	248	0.00	29.753 
11:05	40.1	40.1	40.1	69	30.8	1	3	248	0.00	29.753 
11:10	40.1	40.1	40.1	69	30.8	1	3	248	0.00	29.753 
11:15	40.2	40.2	40.2	69	30.9	1	4	112	0.00	29.751 
11:20	40.3	40.3	40.3	69	31.0	1	4	248	0.00	29.751 
11:25	40.3	40.3	40.3	69	31.0	1	3	248	0.00	29.751 
11:30	40.5	40.5	40.5	69	31.1	1	2	225	0.00	29.740 
11:35	40.5	40.5	40.5	69	31.1	1	4	45	0.00	29.740 
11:40	40.6	40.6	40.6	69	31.2	1	3	90	0.00	29.740 
11:45	40.8	40.8	40.8	69	31.4	1	3	90	0.00	29.732 
11:50	41.1	41.1	41.1	69	31.7	2	6	90	0.00	29.732 
11:55	41.2	41.2	41.2	68	31.5	2	4	90	0.00	29.732 
12:00	41.3	41.3	41.3	68	31.5	1	3	112	0.00	29.723 
12:05	41.5	41.5	41.5	68	31.7	2	5	112	0.00	29.723 
12:10	41.5	41.5	41.5	68	31.7	1	2	112	0.00	29.723 
12:15	41.5	41.5	41.5	68	31.7	1	5	248	0.00	29.721 
12:20	41.5	41.5	41.5	68	31.7	1	3	22	0.00	29.721 
12:25	41.6	41.6	41.6	68	31.8	1	3	270	0.00	29.721 
12:30	41.5	41.5	41.5	68	31.7	1	4	90	0.00	29.706 
12:35	41.5	41.5	41.5	69	32.1	1	3	90	0.00	29.706 
12:40	41.5	41.5	41.5	69	32.1	1	3	22	0.00	29.706 
12:45	41.3	41.3	41.3	69	31.9	1	3	225	0.00	29.706 
12:50	41.2	41.2	41.2	69	31.8	2	7	90	0.00	29.706 
12:55	41.1	41.1	41.1	69	31.7	1	4	270	0.00	29.706 
13:00	41.1	41.1	41.1	69	31.7	1	5	248	0.00	29.701 
13:05	41.2	41.2	41.2	70	32.2	1	3	135	0.00	29.701 
13:10	41.3	41.3	41.3	69	31.9	1	4	135	0.00	29.701 
13:15	41.6	41.6	41.6	69	32.2	1	3	68	0.00	29.691 
13:20	41.6	41.6	41.6	69	32.2	1	3	68	0.00	29.691 
13:25	41.5	41.5	41.5	69	32.1	1	4	90	0.00	29.691 
13:30	41.3	41.3	41.3	70	32.3	1	4	90	0.00	29.692 
13:35	41.2	41.2	41.2	70	32.2	1	2	90	0.00	29.692 
13:40	41.1	41.1	41.1	70	32.1	1	2	68	0.00	29.692 
13:45	41.1	41.1	41.1	71	32.4	1	3	90	0.00	29.691 
13:50	41.2	41.2	41.2	70	32.2	1	5	112	0.00	29.691 
13:55	41.2	41.2	41.2	70	32.2	1	3	90	0.00	29.691 
14:00	41.2	41.2	41.2	70	32.2	1	3	90	0.00	29.684 
14:05	41.2	41.2	41.2	70	32.2	0	1	112	0.00	29.684 
14:10	41.1	41.1	41.1	71	32.4	1	2	112	0.00	29.684 
14:15	41.1	41.1	41.1	70	32.1	1	2	112	0.00	29.677 
14:20	40.9	40.9	40.9	71	32.2	1	3	112	0.00	29.677 
14:25	40.9	40.9	40.9	71	32.2	1	3	112	0.00	29.677 
14:30	40.8	40.8	40.8	71	32.1	1	3	112	0.00	29.677 
14:35	40.6	40.6	40.6	72	32.3	1	3	112	0.00	29.677 
14:40	40.5	40.5	40.5	72	32.2	0	2	112	0.00	29.677 
14:45	40.5	40.5	40.5	72	32.2	0	2	112	0.00	29.683 
14:50	40.5	40.5	40.5	72	32.2	1	3	112	0.00	29.683 
14:55	40.5	40.5	40.5	72	32.2	0	2	112	0.00	29.683 
15:00	40.3	40.3	40.3	72	32.0	1	3	112	0.00	29.684 
15:05	40.2	40.2	40.2	73	32.2	1	4	90	0.00	29.684 
15:10	40.2	40.2	40.2	73	32.2	1	3	112	0.00	29.684 
15:15	40.1	40.1	40.1	73	32.2	0	3	90	0.00	29.684 
15:20	40.1	40.1	40.1	73	32.2	1	3	90	0.00	29.684 
15:25	39.8	39.8	39.8	74	32.2	0	1	112	0.00	29.684 
15:30	39.6	39.6	39.6	75	32.3	1	3	90	0.00	29.686 
15:35	39.5	39.5	39.5	75	32.2	0	1	90	0.00	29.686 
15:40	39.5	39.5	39.5	76	32.6	0	2	90	0.00	29.686 
15:45	39.3	39.3	39.3	76	32.4	0	1	90	0.00	29.682 
15:50	39.3	39.3	39.3	77	32.7	0	1	90	0.00	29.682 
15:55	39.2	39.2	39.2	78	32.9	0	1	90	0.00	29.682 
16:00	39.1	39.1	39.1	78	32.8	0	1	90	0.00	29.684 
16:05	38.9	38.9	38.9	79	33.0	0	1	90	0.00	29.684 
16:10	38.8	38.8	38.8	79	32.9	0	0	---	0.00	29.684 
16:15	38.5	38.5	38.5	80	32.9	0	1	90	0.00	29.689 
16:20	38.3	38.3	38.3	81	33.0	0	1	90	0.00	29.689 
16:25	38.2	38.2	38.2	82	33.2	0	2	90	0.00	29.689 
16:30	37.9	37.9	37.9	83	33.2	0	1	90	0.01	29.695 
16:35	37.8	37.8	37.8	84	33.4	0	1	90	0.00	29.695 
16:40	37.5	37.5	37.5	86	33.7	0	1	90	0.01	29.695 
16:45	37.3	37.3	37.3	86	33.5	1	2	90	0.00	29.690 
16:50	37.2	37.2	37.2	87	33.7	1	2	90	0.01	29.690 
16:55	37.0	37.0	37.0	87	33.5	0	1	90	0.01	29.690 
17:00	36.9	36.9	36.9	88	33.7	0	1	90	0.00	29.699 
17:05	36.8	36.8	36.8	88	33.6	0	0	---	0.00	29.699 
17:10	36.6	36.6	36.6	88	33.4	0	0	---	0.01	29.699 
17:15	36.5	36.5	36.5	89	33.6	0	0	---	0.00	29.712 
17:20	36.3	36.3	36.3	90	33.7	0	0	---	0.00	29.712 
17:25	36.2	36.2	36.2	90	33.6	0	0	---	0.01	29.712 
17:30	36.2	36.2	36.2	91	33.8	0	0	---	0.00	29.710 
17:35	36.2	36.2	36.2	91	33.8	0	0	---	0.01	29.710 
17:40	36.0	36.0	36.0	91	33.6	0	0	---	0.00	29.710 
17:45	36.0	36.0	36.0	92	33.9	0	1	90	0.00	29.703 
17:50	36.0	36.0	36.0	92	33.9	0	1	90	0.01	29.703 
17:55	36.0	36.0	36.0	92	33.9	0	1	90	0.00	29.703 
18:00	36.0	36.0	36.0	92	33.9	0	0	---	0.00	29.701 
18:05	35.9	35.9	35.9	92	33.8	0	0	---	0.00	29.701 
18:10	35.9	35.9	35.9	92	33.8	0	1	90	0.01	29.701 
18:15	35.9	35.9	35.9	92	33.8	0	1	90	0.00	29.696 
18:20	35.9	35.9	35.9	93	34.1	1	2	90	0.00	29.696 
18:25	35.9	35.9	35.9	93	34.1	1	2	90	0.00	29.696 
18:30	35.9	35.9	35.9	93	34.1	0	1	90	0.00	29.695 
18:35	35.9	35.9	35.9	93	34.1	0	1	90	0.00	29.695 
18:40	35.9	35.9	35.9	93	34.1	0	1	90	0.00	29.695 
18:45	35.9	35.9	35.9	93	34.1	0	1	90	0.00	29.693 
18:50	35.8	35.8	35.8	93	34.0	0	0	---	0.00	29.693 
18:55	35.6	35.6	35.6	93	33.8	0	1	90	0.00	29.693 
19:00	35.5	35.5	35.5	93	33.7	0	1	90	0.00	29.692 
19:05	35.5	35.5	35.5	93	33.7	0	0	---	0.00	29.692 
19:10	35.5	35.5	35.5	93	33.7	0	1	90	0.00	29.692 
19:15	35.5	35.5	35.5	93	33.7	0	1	90	0.00	29.692 
19:20	35.5	35.5	35.5	93	33.7	0	1	90	0.00	29.692 
19:25	35.5	35.5	35.5	94	33.9	0	1	90	0.00	29.692 
19:30	35.5	35.5	35.5	94	33.9	1	2	90	0.00	29.681 
19:35	35.3	35.3	35.3	94	33.7	0	1	90	0.00	29.681 
19:40	35.5	35.5	35.5	94	33.9	0	1	90	0.00	29.681 
19:45	35.5	35.5	35.5	94	33.9	0	0	---	0.00	29.677 
19:50	35.3	35.3	35.3	94	33.7	0	1	90	0.00	29.677 
19:55	35.3	35.3	35.3	94	33.7	0	1	90	0.00	29.677 
20:00	35.3	35.3	35.3	94	33.7	0	1	90	0.00	29.676 
20:05	35.2	35.2	35.2	94	33.6	0	1	90	0.00	29.676 
20:10	35.2	35.2	35.2	94	33.6	1	2	90	0.00	29.676 
20:15	35.2	35.2	35.2	94	33.6	0	1	90	0.00	29.674 
20:20	35.2	35.2	35.2	94	33.6	0	1	90	0.00	29.674 
20:25	35.2	35.2	35.2	94	33.6	0	1	90	0.01	29.674 
20:30	35.2	35.2	35.2	94	33.6	0	1	90	0.00	29.676 
20:35	35.2	35.2	35.2	94	33.6	0	1	90	0.00	29.676 
20:40	35.0	35.0	35.0	94	33.5	0	1	90	0.00	29.676 
20:45	35.0	35.0	35.0	94	33.5	0	1	90	0.00	29.674 
20:50	35.0	35.0	35.0	94	33.5	0	1	90	0.00	29.674 
20:55	35.0	35.0	35.0	94	33.5	0	0	---	0.00	29.674 
21:00	35.0	35.0	35.0	94	33.5	0	2	90	0.00	29.670 
21:05	35.0	35.0	35.0	94	33.5	0	1	90	0.00	29.670 
21:10	35.0	35.0	35.0	94	33.5	0	1	90	0.00	29.670 
21:15	35.0	35.0	35.0	94	33.5	0	1	90	0.00	29.662 
21:20	34.9	34.9	34.9	94	33.4	0	1	90	0.00	29.662 
21:25	34.9	34.9	34.9	94	33.4	0	1	90	0.00	29.662 
21:30	34.9	34.9	34.9	94	33.4	0	1	90	0.00	29.658 
21:35	34.9	34.9	34.9	94	33.4	0	1	90	0.00	29.658 
21:40	34.9	34.9	34.9	94	33.4	0	2	90	0.00	29.658 
21:45	34.9	34.9	34.9	94	33.4	0	1	90	0.00	29.658 
21:50	34.9	34.9	34.9	94	33.4	0	1	90	0.00	29.658 
21:55	34.9	34.9	34.9	95	33.6	0	1	90	0.00	29.658 
22:00	34.7	34.7	34.7	94	33.2	0	0	---	0.00	29.661 
22:05	34.6	34.6	34.6	94	33.1	0	0	---	0.00	29.661 
22:10	34.6	34.6	34.6	94	33.1	0	0	---	0.00	29.661 
22:15	34.4	34.4	34.4	94	32.9	0	0	---	0.00	29.658 
22:20	34.4	34.4	34.4	95	33.1	0	1	90	0.00	29.658 
22:25	34.4	34.4	34.4	95	33.1	0	1	90	0.00	29.658 
22:30	34.4	34.4	34.4	95	33.1	0	0	---	0.00	29.658 
22:35	34.4	34.4	34.4	95	33.1	0	0	---	0.00	29.658 
22:40	34.4	34.4	34.4	95	33.1	0	1	90	0.00	29.658 
22:45	34.4	34.4	34.4	95	33.1	0	2	90	0.00	29.658 
22:50	34.6	34.6	34.6	95	33.3	0	0	---	0.00	29.658 
22:55	34.6	34.6	34.6	95	33.3	0	0	---	0.00	29.658 
23:00	34.6	34.6	34.6	95	33.3	0	0	---	0.00	29.663 
23:05	34.6	34.6	34.6	95	33.3	0	0	---	0.00	29.663 
23:10	34.4	34.4	34.4	95	33.1	0	0	---	0.00	29.663 
23:15	34.4	34.4	34.4	95	33.1	0	0	---	0.01	29.662 
23:20	34.4	34.4	34.4	95	33.1	0	0	---	0.00	29.662 
23:25	34.3	34.3	34.3	95	33.0	0	0	---	0.00	29.662 
23:30	34.3	34.3	34.3	95	33.0	0	0	---	0.00	29.659 
23:35	34.3	34.3	34.3	95	33.0	0	0	---	0.00	29.659 
23:40	34.4	34.4	34.4	95	33.1	0	0	---	0.00	29.659 
23:45	34.4	34.4	34.4	95	33.1	0	0	---	0.00	29.653 
23:50	34.4	34.4	34.4	95	33.1	0	1	90	0.00	29.653 
23:55	34.6	34.6	34.6	95	33.3	0	1	90	0.00	29.653 

CoCoRaHS
IN-AL-39
A2 Web Hosting
Creative Commons License
GoDaddy
Look for:

loaded 2017-12-11 14:18:53 • last modified 2010-11-18 10:43:29
Privacy PolicyDisclaimer
• wx.awcolley.com is powered by PmWiki v.2002016 •
• all content (unless otherwise noted) © 2017 A W Colley